createdAt,value
2018-01-27T00:01:47.795Z,87.34
2018-01-27T00:04:37.798Z,87.61
2018-01-27T00:07:11.231Z,87.72
2018-01-27T00:09:40.323Z,87.54
2018-01-27T00:12:08.447Z,87.95
2018-01-27T00:14:36.564Z,87.63
2018-01-27T00:17:04.669Z,87.41
2018-01-27T00:19:32.781Z,87.56
2018-01-27T00:22:00.886Z,87.73
2018-01-27T00:24:45.731Z,87.26
2018-01-27T00:27:13.833Z,87.71
2018-01-27T00:29:41.943Z,87.79
2018-01-27T00:32:16.323Z,87.32
2018-01-27T00:34:44.493Z,87.21
2018-01-27T00:37:12.567Z,87.08
2018-01-27T00:39:40.666Z,87.51
2018-01-27T00:42:08.769Z,87.55
2018-01-27T00:44:36.983Z,87.65
2018-01-27T00:47:05.082Z,87.68
2018-01-27T00:49:33.186Z,87.68
2018-01-27T00:52:01.293Z,87.26
2018-01-27T00:54:29.405Z,87.46
2018-01-27T00:56:57.524Z,87.97
2018-01-27T00:59:25.660Z,87.60
2018-01-27T01:01:53.775Z,87.37
2018-01-27T01:04:21.897Z,87.61
2018-01-27T01:06:53.598Z,87.59
2018-01-27T01:09:21.710Z,87.75
2018-01-27T01:11:50.287Z,87.62
2018-01-27T01:14:18.383Z,87.44
2018-01-27T01:16:46.482Z,87.57
2018-01-27T01:19:14.600Z,88.27
2018-01-27T01:21:42.706Z,87.94
2018-01-27T01:24:10.814Z,87.37
2018-01-27T01:26:38.914Z,87.52
2018-01-27T01:29:07.035Z,87.38
2018-01-27T01:31:35.134Z,87.58
2018-01-27T01:34:03.249Z,87.61
2018-01-27T01:36:31.375Z,87.37
2018-01-27T01:38:59.481Z,87.54
2018-01-27T01:41:27.585Z,88.05
2018-01-27T01:44:01.306Z,88.22
2018-01-27T01:46:29.406Z,88.14
2018-01-27T01:49:09.492Z,88.13
2018-01-27T01:51:37.593Z,87.95
2018-01-27T01:54:05.698Z,87.55
2018-01-27T01:56:33.802Z,88.07
2018-01-27T01:59:01.920Z,87.72
2018-01-27T02:01:30.036Z,88.25
2018-01-27T02:03:58.133Z,88.06
2018-01-27T02:06:26.226Z,87.86
2018-01-27T02:08:54.346Z,88.12
2018-01-27T02:11:22.442Z,87.81
2018-01-27T02:13:50.572Z,88.22
2018-01-27T02:16:18.662Z,87.64
2018-01-27T02:18:46.776Z,87.46
2018-01-27T02:21:14.877Z,87.53
2018-01-27T02:23:42.978Z,87.74
2018-01-27T02:26:11.093Z,87.67
2018-01-27T02:28:39.219Z,87.37
2018-01-27T02:31:07.313Z,88.07
2018-01-27T02:33:35.426Z,88.15
2018-01-27T02:36:03.522Z,87.99
2018-01-27T02:38:31.644Z,87.83
2018-01-27T02:40:59.735Z,87.71
2018-01-27T02:43:27.851Z,87.68
2018-01-27T02:45:55.970Z,87.55
2018-01-27T02:48:24.130Z,87.93
2018-01-27T02:50:52.182Z,87.93
2018-01-27T02:53:20.285Z,88.00
2018-01-27T02:55:48.386Z,88.06
2018-01-27T02:58:16.508Z,88.67
2018-01-27T03:00:44.598Z,88.68
2018-01-27T03:03:12.705Z,88.67
2018-01-27T03:05:40.838Z,88.79
2018-01-27T03:08:08.930Z,88.75
2018-01-27T03:10:37.059Z,89.28
2018-01-27T03:13:05.162Z,89.05
2018-01-27T03:15:33.261Z,88.85
2018-01-27T03:18:01.364Z,89.15
2018-01-27T03:20:29.465Z,89.09
2018-01-27T03:22:57.587Z,89.21
2018-01-27T03:25:25.695Z,89.26
2018-01-27T03:27:53.816Z,89.00
2018-01-27T03:30:21.906Z,88.58
2018-01-27T03:32:50.029Z,88.64
2018-01-27T03:35:18.128Z,88.92
2018-01-27T03:37:46.240Z,89.30
2018-01-27T03:40:14.340Z,89.77
2018-01-27T03:42:42.434Z,89.31
2018-01-27T03:45:10.609Z,89.26
2018-01-27T03:47:38.723Z,88.83
2018-01-27T03:50:06.825Z,89.29
2018-01-27T03:52:34.925Z,89.00
2018-01-27T03:55:03.022Z,89.36
2018-01-27T03:57:31.131Z,89.53
2018-01-27T03:59:59.230Z,89.59
2018-01-27T04:02:27.353Z,89.67
2018-01-27T04:04:55.454Z,89.69
2018-01-27T04:07:23.557Z,90.00
2018-01-27T04:09:51.661Z,89.85
2018-01-27T04:12:19.791Z,89.83
2018-01-27T04:14:47.908Z,89.72
2018-01-27T04:17:15.993Z,89.56
2018-01-27T04:19:44.105Z,89.96
2018-01-27T04:22:12.210Z,89.88
2018-01-27T04:24:40.321Z,89.74
2018-01-27T04:27:08.436Z,89.56
2018-01-27T04:29:36.544Z,89.55
2018-01-27T04:32:04.650Z,89.20
2018-01-27T04:34:32.762Z,89.39
2018-01-27T04:37:00.922Z,89.79
2018-01-27T04:39:29.036Z,89.81
2018-01-27T04:41:57.133Z,90.13
2018-01-27T04:44:25.265Z,90.05
2018-01-27T04:46:53.363Z,89.70
2018-01-27T04:49:21.474Z,90.13
2018-01-27T04:51:49.582Z,90.27
2018-01-27T04:54:17.677Z,90.53
2018-01-27T04:56:45.802Z,90.78
2018-01-27T04:59:13.897Z,90.68
2018-01-27T05:01:42.015Z,90.63
2018-01-27T05:04:10.119Z,90.23
2018-01-27T05:06:38.226Z,89.79
2018-01-27T05:09:06.343Z,89.75
2018-01-27T05:11:34.458Z,89.82
2018-01-27T05:14:02.584Z,89.87
2018-01-27T05:16:30.678Z,89.70
2018-01-27T05:18:58.790Z,90.01
2018-01-27T05:21:26.885Z,90.21
2018-01-27T05:23:55.019Z,90.15
2018-01-27T05:26:23.114Z,89.66
2018-01-27T05:28:51.224Z,88.83
2018-01-27T05:31:19.331Z,88.83
2018-01-27T05:36:41.255Z,89.31
2018-01-27T05:39:09.385Z,88.75
2018-01-27T05:41:37.506Z,88.76
2018-01-27T05:44:05.660Z,89.35
2018-01-27T05:46:33.764Z,88.67
2018-01-27T05:49:01.865Z,89.09
2018-01-27T05:51:29.977Z,89.48
2018-01-27T05:53:58.311Z,88.69
2018-01-27T05:56:44.414Z,88.71
2018-01-27T05:59:12.536Z,88.81
2018-01-27T06:01:40.637Z,89.26
2018-01-27T06:04:08.742Z,89.79
2018-01-27T06:06:36.843Z,90.34
2018-01-27T06:09:04.966Z,90.90
2018-01-27T06:11:36.226Z,91.33
2018-01-27T06:16:59.008Z,91.82
2018-01-27T06:19:27.113Z,91.93
2018-01-27T06:22:12.833Z,91.65
2018-01-27T06:24:44.414Z,91.48
2018-01-27T06:27:12.509Z,91.15
2018-01-27T06:29:40.610Z,91.17
2018-01-27T06:32:08.731Z,91.41
2018-01-27T06:34:36.823Z,91.50
2018-01-27T06:37:04.930Z,90.17
2018-01-27T06:39:33.039Z,88.17
2018-01-27T06:42:01.145Z,89.85
2018-01-27T06:44:29.263Z,90.79
2018-01-27T06:46:57.376Z,91.08
2018-01-27T06:49:25.473Z,90.86
2018-01-27T06:51:59.808Z,91.10
2018-01-27T06:54:28.810Z,90.97
2018-01-27T06:56:56.925Z,91.32
2018-01-27T06:59:25.037Z,91.17
2018-01-27T07:01:53.137Z,90.87
2018-01-27T07:04:21.241Z,90.87
2018-01-27T07:06:49.371Z,90.97
2018-01-27T07:09:24.410Z,91.06
2018-01-27T07:12:04.383Z,91.39
2018-01-27T07:14:32.497Z,91.14
2018-01-27T07:17:00.615Z,91.31
2018-01-27T07:19:28.740Z,91.07
2018-01-27T07:22:00.389Z,90.81
2018-01-27T07:24:28.508Z,91.25
2018-01-27T07:26:56.630Z,91.27
2018-01-27T07:29:24.744Z,91.63
2018-01-27T07:31:53.745Z,91.20
2018-01-27T07:34:22.800Z,91.23
2018-01-27T07:36:50.922Z,90.96
2018-01-27T07:39:19.045Z,91.16
2018-01-27T07:41:47.145Z,91.23
2018-01-27T07:44:15.249Z,91.54
2018-01-27T07:46:43.378Z,91.75
2018-01-27T07:49:11.469Z,91.53
2018-01-27T07:51:42.884Z,92.75
2018-01-27T07:54:10.977Z,92.63
2018-01-27T07:56:51.921Z,92.16
2018-01-27T07:59:20.039Z,92.02
2018-01-27T08:01:50.114Z,91.72
2018-01-27T08:04:18.236Z,91.85
2018-01-27T08:06:46.334Z,91.81
2018-01-27T08:09:14.467Z,91.29
2018-01-27T08:11:47.226Z,90.75
2018-01-27T08:14:16.308Z,90.54
2018-01-27T08:16:44.411Z,90.65
2018-01-27T08:19:14.245Z,90.32
2018-01-27T08:21:42.345Z,90.50
2018-01-27T08:24:10.451Z,90.49
2018-01-27T08:26:38.584Z,90.15
2018-01-27T08:29:06.677Z,89.95
2018-01-27T08:31:34.795Z,90.23
2018-01-27T08:34:04.892Z,89.58
2018-01-27T08:36:33.018Z,88.51
2018-01-27T08:39:05.031Z,86.76
2018-01-27T08:41:33.130Z,84.82
2018-01-27T08:44:01.253Z,84.13
2018-01-27T08:46:29.350Z,83.47
2018-01-27T08:48:57.452Z,83.33
2018-01-27T08:51:25.553Z,83.49
2018-01-27T08:53:59.398Z,83.44
2018-01-27T08:56:27.511Z,84.21
2018-01-27T08:58:55.640Z,83.60
2018-01-27T09:01:23.746Z,82.24
2018-01-27T09:03:51.854Z,83.03
2018-01-27T09:06:19.958Z,83.87
2018-01-27T09:08:48.369Z,83.59
2018-01-27T09:11:27.619Z,84.77
2018-01-27T09:13:55.734Z,86.18
2018-01-27T09:16:23.841Z,85.91
2018-01-27T09:18:51.969Z,86.05
2018-01-27T09:21:20.084Z,85.71
2018-01-27T09:23:48.200Z,85.77
2018-01-27T09:26:16.305Z,86.29
2018-01-27T09:28:44.407Z,86.24
2018-01-27T09:31:12.548Z,85.71
2018-01-27T09:33:40.638Z,85.14
2018-01-27T09:36:12.083Z,85.72
2018-01-27T09:38:40.186Z,84.77
2018-01-27T09:41:08.320Z,85.05
2018-01-27T09:43:36.456Z,84.85
2018-01-27T09:46:04.553Z,83.29
2018-01-27T09:48:32.683Z,82.84
2018-01-27T09:51:00.817Z,81.76
2018-01-27T09:53:28.917Z,81.76
2018-01-27T09:56:04.253Z,82.99
2018-01-27T09:58:32.384Z,82.57
2018-01-27T10:01:00.477Z,81.23
2018-01-27T10:03:28.586Z,80.58
2018-01-27T10:06:01.108Z,80.45
2018-01-27T10:08:34.075Z,80.62
2018-01-27T10:11:06.063Z,79.97
2018-01-27T10:13:48.423Z,78.95
2018-01-27T10:16:16.560Z,78.06
2018-01-27T10:18:48.989Z,77.98
2018-01-27T10:21:17.132Z,78.01
2018-01-27T10:23:46.201Z,80.31
2018-01-27T10:26:20.932Z,79.82
2018-01-27T10:28:50.998Z,81.05
2018-01-27T10:31:21.044Z,81.04
2018-01-27T10:33:49.172Z,80.63
2018-01-27T10:36:19.218Z,80.17
2018-01-27T10:38:47.355Z,80.32
2018-01-27T10:41:17.401Z,78.63
2018-01-27T10:43:48.977Z,80.42
2018-01-27T10:46:17.118Z,80.52
2018-01-27T10:48:45.232Z,79.99
2018-01-27T10:51:13.345Z,76.95
2018-01-27T10:53:47.108Z,77.94
2018-01-27T10:56:15.304Z,77.86
2018-01-27T10:58:57.656Z,77.06
2018-01-27T11:01:25.766Z,78.70
2018-01-27T11:03:53.871Z,75.60
2018-01-27T11:06:21.974Z,75.70
2018-01-27T11:08:50.080Z,75.83
2018-01-27T11:11:18.182Z,73.31
2018-01-27T11:13:47.257Z,72.94
2018-01-27T11:16:16.341Z,72.89
2018-01-27T11:18:44.457Z,73.41
2018-01-27T11:21:23.796Z,72.77
2018-01-27T11:23:53.877Z,72.29
2018-01-27T11:26:21.973Z,70.44
2018-01-27T11:28:51.024Z,71.62
2018-01-27T11:31:22.377Z,70.76
2018-01-27T11:33:50.466Z,70.40
2018-01-27T11:36:23.124Z,69.85
2018-01-27T11:38:51.240Z,70.21
2018-01-27T11:41:19.346Z,70.25
2018-01-27T11:43:47.454Z,69.97
2018-01-27T11:46:15.561Z,69.58
2018-01-27T11:48:43.765Z,70.36
2018-01-27T11:51:11.909Z,71.21
2018-01-27T11:53:39.996Z,71.28
2018-01-27T11:56:08.120Z,71.29
2018-01-27T11:58:36.247Z,71.60
2018-01-27T12:01:17.033Z,72.02
2018-01-27T12:03:45.159Z,71.57
2018-01-27T12:06:13.269Z,71.32
2018-01-27T12:08:41.369Z,71.78
2018-01-27T12:11:21.377Z,71.65
2018-01-27T12:17:07.168Z,72.57
2018-01-27T12:19:35.271Z,71.46
2018-01-27T12:22:03.392Z,72.09
2018-01-27T12:24:31.499Z,72.17
2018-01-27T12:27:02.891Z,71.71
2018-01-27T12:29:37.467Z,72.37
2018-01-27T12:32:06.521Z,71.39
2018-01-27T12:34:34.619Z,70.54
2018-01-27T12:37:06.552Z,70.23
2018-01-27T12:39:34.650Z,69.92
2018-01-27T12:42:20.878Z,69.99
2018-01-27T12:44:49.145Z,70.81
2018-01-27T12:47:30.046Z,78.37
2018-01-27T12:49:58.172Z,64.84
2018-01-27T12:52:26.288Z,68.63
2018-01-27T12:54:54.431Z,70.26
2018-01-27T12:57:25.826Z,67.54
2018-01-27T13:00:06.176Z,65.93
2018-01-27T13:02:34.296Z,66.04
2018-01-27T13:05:03.429Z,65.01
2018-01-27T13:07:48.486Z,63.48
2018-01-27T13:10:18.547Z,63.62
2018-01-27T13:12:49.688Z,63.81
2018-01-27T13:15:17.804Z,63.91
2018-01-27T13:17:45.914Z,64.34
2018-01-27T13:20:18.022Z,62.63
2018-01-27T13:22:46.229Z,64.26
2018-01-27T13:25:37.797Z,64.63
2018-01-27T13:28:12.632Z,64.79
2018-01-27T13:30:40.758Z,64.93
2018-01-27T13:33:08.877Z,65.50
2018-01-27T13:35:36.997Z,66.13
2018-01-27T13:38:05.132Z,66.28
2018-01-27T13:40:33.223Z,66.18
2018-01-27T13:43:01.363Z,66.09
2018-01-27T13:45:29.470Z,65.66
2018-01-27T13:48:01.805Z,65.86
2018-01-27T13:50:29.945Z,65.33
2018-01-27T13:52:58.058Z,66.36
2018-01-27T13:55:26.161Z,67.41
2018-01-27T13:57:54.280Z,67.21
2018-01-27T14:00:22.398Z,66.93
2018-01-27T14:02:50.516Z,67.12
2018-01-27T14:05:18.633Z,66.96
2018-01-27T14:07:46.747Z,67.31
2018-01-27T14:10:16.768Z,68.37
2018-01-27T14:12:44.865Z,67.99
2018-01-27T14:15:12.997Z,67.94
2018-01-27T14:17:41.115Z,68.09
2018-01-27T14:20:09.223Z,68.49
2018-01-27T14:22:37.367Z,68.69
2018-01-27T14:25:05.483Z,68.84
2018-01-27T14:27:33.592Z,69.07
2018-01-27T14:30:01.722Z,68.84
2018-01-27T14:32:31.724Z,68.85
2018-01-27T14:35:00.761Z,68.98
2018-01-27T14:37:28.883Z,69.58
2018-01-27T14:39:56.992Z,69.45
2018-01-27T14:42:35.826Z,69.36
2018-01-27T14:45:03.938Z,69.45
2018-01-27T14:47:32.163Z,69.53
2018-01-27T14:50:02.215Z,69.58
2018-01-27T14:52:30.336Z,69.82
2018-01-27T14:54:59.402Z,69.87
2018-01-27T14:57:27.516Z,69.74
2018-01-27T14:59:55.625Z,70.19
2018-01-27T15:02:23.730Z,70.15
2018-01-27T15:04:51.852Z,70.24
2018-01-27T15:07:20.986Z,70.54
2018-01-27T15:09:49.124Z,70.68
2018-01-27T15:12:17.243Z,70.47
2018-01-27T15:14:45.344Z,70.42
2018-01-27T15:17:18.094Z,70.67
2018-01-27T15:19:48.101Z,70.86
2018-01-27T15:22:16.258Z,70.95
2018-01-27T15:24:44.351Z,71.12
2018-01-27T15:27:12.477Z,70.80
2018-01-27T15:29:40.591Z,71.27
2018-01-27T15:32:09.075Z,71.07
2018-01-27T15:34:37.190Z,71.48
2018-01-27T15:37:06.236Z,71.67
2018-01-27T15:39:40.333Z,71.29
2018-01-27T15:42:08.568Z,70.11
2018-01-27T15:44:36.876Z,71.50
2018-01-27T15:47:05.012Z,71.26
2018-01-27T15:49:34.035Z,71.61
2018-01-27T15:52:15.600Z,71.86
2018-01-27T15:54:45.593Z,72.05
2018-01-27T15:57:20.780Z,72.20
2018-01-27T15:59:48.887Z,72.20
2018-01-27T16:02:16.989Z,71.92
2018-01-27T16:04:50.022Z,71.73
2018-01-27T16:07:19.042Z,72.02
2018-01-27T16:09:48.051Z,71.77
2018-01-27T16:12:16.146Z,72.05
2018-01-27T16:14:47.561Z,72.43
2018-01-27T16:17:15.660Z,72.06
2018-01-27T16:19:43.768Z,72.56
2018-01-27T16:22:12.905Z,72.34
2018-01-27T16:24:41.006Z,72.84
2018-01-27T16:27:09.106Z,72.65
2018-01-27T16:29:37.479Z,73.04
2018-01-27T16:32:05.588Z,73.16
2018-01-27T16:34:33.730Z,73.91
2018-01-27T16:37:01.833Z,73.52
2018-01-27T16:39:29.955Z,73.38
2018-01-27T16:41:58.094Z,73.46
2018-01-27T16:44:26.271Z,73.60
2018-01-27T16:46:54.513Z,73.69
2018-01-27T16:49:22.666Z,73.46
2018-01-27T16:51:50.775Z,75.07
2018-01-27T16:54:18.885Z,73.57
2018-01-27T16:56:46.982Z,73.77
2018-01-27T16:59:15.092Z,73.60
2018-01-27T17:01:49.028Z,73.23
2018-01-27T17:04:17.137Z,73.42
2018-01-27T17:06:45.253Z,73.88
2018-01-27T17:09:13.345Z,73.72
2018-01-27T17:11:41.449Z,73.84
2018-01-27T17:14:09.571Z,73.93
2018-01-27T17:16:37.671Z,73.81
2018-01-27T17:19:05.780Z,76.07
2018-01-27T17:21:34.785Z,73.32
2018-01-27T17:24:02.902Z,73.69
2018-01-27T17:26:34.120Z,73.88
2018-01-27T17:29:02.225Z,73.78
2018-01-27T17:31:30.326Z,73.48
2018-01-27T17:34:03.265Z,74.02
2018-01-27T17:36:31.366Z,74.20
2018-01-27T17:38:59.454Z,74.01
2018-01-27T17:41:31.054Z,74.02
2018-01-27T17:43:59.176Z,74.43
2018-01-27T17:46:28.184Z,77.79
2018-01-27T17:48:58.204Z,73.73
2018-01-27T17:51:26.310Z,73.94
2018-01-27T17:53:54.405Z,74.43
2018-01-27T17:56:22.542Z,74.91
2018-01-27T17:58:54.423Z,75.34
2018-01-27T18:01:22.513Z,75.09
2018-01-27T18:03:50.625Z,75.14
2018-01-27T18:06:24.998Z,75.51
2018-01-27T18:08:53.124Z,74.92
2018-01-27T18:11:21.213Z,74.78
2018-01-27T18:13:49.329Z,75.19
2018-01-27T18:16:19.334Z,75.71
2018-01-27T18:18:47.444Z,75.66
2018-01-27T18:21:21.371Z,75.78
2018-01-27T18:23:54.275Z,76.00
2018-01-27T18:26:41.381Z,75.80
2018-01-27T18:29:16.695Z,76.07
2018-01-27T18:31:47.888Z,75.74
2018-01-27T18:34:15.996Z,76.28
2018-01-27T18:36:51.469Z,75.93
2018-01-27T18:39:20.483Z,75.96
2018-01-27T18:41:48.608Z,76.20
2018-01-27T18:44:27.979Z,76.31
2018-01-27T18:46:59.055Z,76.41
2018-01-27T18:49:28.133Z,76.14
2018-01-27T18:51:56.248Z,76.14
2018-01-27T18:54:24.379Z,75.96
2018-01-27T18:56:52.502Z,76.09
2018-01-27T18:59:30.836Z,75.87
2018-01-27T19:01:58.931Z,76.16
2018-01-27T19:04:27.044Z,76.01
2018-01-27T19:06:55.173Z,75.65
2018-01-27T19:09:23.261Z,75.50
2018-01-27T19:11:51.369Z,75.58
2018-01-27T19:14:36.282Z,75.57
2018-01-27T19:17:06.336Z,75.46
2018-01-27T19:19:35.397Z,75.70
2018-01-27T19:22:03.508Z,75.86
2018-01-27T19:27:51.909Z,75.57
2018-01-27T19:30:35.494Z,75.63
2018-01-27T19:33:18.474Z,75.72
2018-01-27T19:35:54.920Z,75.63
2018-01-27T19:38:24.135Z,75.64
2018-01-27T19:40:52.672Z,75.89
2018-01-27T19:43:21.188Z,75.62
2018-01-27T19:45:51.907Z,75.73
2018-01-27T19:48:21.456Z,75.84
2018-01-27T19:50:51.868Z,75.82
2018-01-27T19:53:21.294Z,75.36
2018-01-27T19:55:58.464Z,75.54
2018-01-27T19:58:28.172Z,75.64
2018-01-27T20:01:04.158Z,75.32
2018-01-27T20:03:33.147Z,75.25
2018-01-27T20:06:01.503Z,75.08
2018-01-27T20:08:40.840Z,75.14
2018-01-27T20:11:25.029Z,75.25
2018-01-27T20:13:58.640Z,74.92
2018-01-27T20:16:26.793Z,75.48
2018-01-27T20:18:55.047Z,74.78
2018-01-27T20:21:28.308Z,75.32
2018-01-27T20:23:56.511Z,75.61
2018-01-27T20:26:34.988Z,74.97
2018-01-27T20:29:05.186Z,75.47
2018-01-27T20:31:34.588Z,75.52
2018-01-27T20:34:04.982Z,76.21
2018-01-27T20:36:46.980Z,76.71
2018-01-27T20:39:28.679Z,77.33
2018-01-27T20:41:56.925Z,78.29
2018-01-27T20:44:44.107Z,77.92
2018-01-27T20:47:12.383Z,77.64
2018-01-27T20:49:41.547Z,78.84
2018-01-27T20:52:13.443Z,78.36
2018-01-27T20:54:44.794Z,77.85
2018-01-27T20:57:21.303Z,77.86
2018-01-27T20:59:49.560Z,78.35
2018-01-27T21:02:17.795Z,78.26
2018-01-27T21:04:46.055Z,78.07
2018-01-27T21:07:20.694Z,79.01
2018-01-27T21:09:52.206Z,78.79
2018-01-27T21:12:20.473Z,79.55
2018-01-27T21:14:49.673Z,80.09
2018-01-27T21:17:18.078Z,79.88
2018-01-27T21:19:46.430Z,79.00
2018-01-27T21:22:14.663Z,78.66
2018-01-27T21:24:43.029Z,78.78
2018-01-27T21:27:20.921Z,79.72
2018-01-27T21:29:52.843Z,78.85
2018-01-27T21:32:22.057Z,78.64
2018-01-27T21:34:50.269Z,78.00
2018-01-27T21:37:20.553Z,77.88
2018-01-27T21:39:57.872Z,77.60
2018-01-27T21:42:27.219Z,77.58
2018-01-27T21:44:55.423Z,77.29
2018-01-27T21:47:25.545Z,77.34
2018-01-27T21:49:53.741Z,77.62
2018-01-27T21:52:22.930Z,77.56
2018-01-27T21:54:52.128Z,77.84
2018-01-27T21:57:27.073Z,77.28
2018-01-27T21:59:55.356Z,77.53
2018-01-27T22:02:24.581Z,77.23
2018-01-27T22:04:52.915Z,77.19
2018-01-27T22:07:22.981Z,77.79
2018-01-27T22:09:51.212Z,78.43
2018-01-27T22:12:19.420Z,78.51
2018-01-27T22:14:47.704Z,77.92
2018-01-27T22:17:19.737Z,78.50
2018-01-27T22:19:48.068Z,77.99
2018-01-27T22:22:25.572Z,79.19
2018-01-27T22:24:54.868Z,79.72
2018-01-27T22:27:31.761Z,78.82
2018-01-27T22:30:04.197Z,78.92
2018-01-27T22:32:32.551Z,78.68
2018-01-27T22:35:00.723Z,79.15
2018-01-27T22:37:30.063Z,77.29
2018-01-27T22:39:58.408Z,78.23
2018-01-27T22:42:41.888Z,77.33
2018-01-27T22:45:10.194Z,76.75
2018-01-27T22:47:38.398Z,76.41
2018-01-27T22:50:08.734Z,75.47
2018-01-27T22:52:37.528Z,76.09
2018-01-27T22:55:05.729Z,75.42
2018-01-27T22:57:39.596Z,75.41
2018-01-27T23:00:07.896Z,75.35
2018-01-27T23:02:36.144Z,74.39
2018-01-27T23:05:04.512Z,75.42
2018-01-27T23:07:32.748Z,74.60
2018-01-27T23:10:01.040Z,76.25
2018-01-27T23:12:29.261Z,76.95
2018-01-27T23:14:57.553Z,78.12
2018-01-27T23:17:25.963Z,80.23
2018-01-27T23:19:54.168Z,80.94
2018-01-27T23:22:22.426Z,81.37
2018-01-27T23:24:51.499Z,82.13
2018-01-27T23:27:41.743Z,82.94
2018-01-27T23:30:09.965Z,84.29
2018-01-27T23:32:38.315Z,85.23
2018-01-27T23:35:06.539Z,86.86
2018-01-27T23:37:46.508Z,88.06
2018-01-27T23:40:15.685Z,87.97
2018-01-27T23:42:43.972Z,88.94
2018-01-27T23:45:25.257Z,89.61
2018-01-27T23:47:53.553Z,89.82
2018-01-27T23:50:22.167Z,90.87
2018-01-27T23:52:50.595Z,91.25
2018-01-27T23:55:18.842Z,91.53
2018-01-27T23:57:47.141Z,91.92
